createdAt,value
2018-11-03T00:01:07.103Z,9.10
2018-11-03T00:03:34.530Z,9.00
2018-11-03T00:06:01.985Z,9.00
2018-11-03T00:08:29.468Z,9.00
2018-11-03T00:10:56.936Z,9.00
2018-11-03T00:13:24.407Z,8.90
2018-11-03T00:15:51.829Z,8.80
2018-11-03T00:18:19.327Z,8.80
2018-11-03T00:20:46.677Z,8.80
2018-11-03T00:23:14.053Z,8.70
2018-11-03T00:25:41.768Z,8.70
2018-11-03T00:28:09.404Z,8.70
2018-11-03T00:30:36.759Z,8.70
2018-11-03T00:33:04.390Z,8.70
2018-11-03T00:35:31.798Z,8.70
2018-11-03T00:37:59.364Z,8.70
2018-11-03T00:40:26.773Z,8.70
2018-11-03T00:42:54.230Z,8.70
2018-11-03T00:45:21.513Z,8.70
2018-11-03T00:47:48.909Z,8.70
2018-11-03T00:50:16.687Z,8.70
2018-11-03T00:52:44.687Z,8.70
2018-11-03T00:55:12.948Z,8.70
2018-11-03T00:57:40.869Z,8.70
2018-11-03T01:00:10.408Z,8.70
2018-11-03T01:02:38.075Z,8.80
2018-11-03T01:05:05.872Z,8.70
2018-11-03T01:07:33.385Z,8.70
2018-11-03T01:10:00.821Z,8.80
2018-11-03T01:12:28.165Z,8.70
2018-11-03T01:14:55.649Z,8.70
2018-11-03T01:17:22.991Z,8.70
2018-11-03T01:19:50.669Z,8.60
2018-11-03T01:22:18.098Z,8.70
2018-11-03T01:24:45.513Z,8.70
2018-11-03T01:27:12.918Z,8.70
2018-11-03T01:29:40.441Z,8.60
2018-11-03T01:32:07.796Z,8.60
2018-11-03T01:34:35.166Z,8.60
2018-11-03T01:37:02.522Z,8.60
2018-11-03T01:39:29.924Z,8.60
2018-11-03T01:41:57.348Z,8.70
2018-11-03T01:44:24.816Z,8.70
2018-11-03T01:46:52.308Z,8.70
2018-11-03T01:49:19.751Z,8.70
2018-11-03T01:51:47.373Z,8.70
2018-11-03T01:54:14.804Z,8.60
2018-11-03T01:56:42.228Z,8.60
2018-11-03T01:59:09.656Z,8.60
2018-11-03T02:01:37.143Z,8.60
2018-11-03T02:04:05.027Z,8.50
2018-11-03T02:06:32.380Z,8.50
2018-11-03T02:08:59.732Z,8.50
2018-11-03T02:11:27.194Z,8.50
2018-11-03T02:13:54.613Z,8.50
2018-11-03T02:16:22.436Z,8.50
2018-11-03T02:18:49.808Z,8.40
2018-11-03T02:21:17.185Z,8.40
2018-11-03T02:23:44.564Z,8.40
2018-11-03T02:26:12.016Z,8.40
2018-11-03T02:28:39.505Z,8.50
2018-11-03T02:31:06.952Z,8.40
2018-11-03T02:33:34.841Z,8.40
2018-11-03T02:36:02.276Z,8.50
2018-11-03T02:38:29.831Z,8.40
2018-11-03T02:40:57.200Z,8.40
2018-11-03T02:43:24.756Z,8.40
2018-11-03T02:45:52.185Z,8.40
2018-11-03T02:48:19.655Z,8.40
2018-11-03T02:50:47.019Z,8.30
2018-11-03T02:53:14.423Z,8.20
2018-11-03T02:55:41.762Z,8.20
2018-11-03T02:58:09.146Z,8.20
2018-11-03T03:00:36.494Z,8.20
2018-11-03T03:03:04.001Z,8.20
2018-11-03T03:05:32.515Z,8.20
2018-11-03T03:07:59.940Z,8.10
2018-11-03T03:10:27.336Z,8.10
2018-11-03T03:12:54.754Z,8.10
2018-11-03T03:15:22.183Z,8.20
2018-11-03T03:17:49.631Z,8.10
2018-11-03T03:20:17.081Z,8.10
2018-11-03T03:22:44.419Z,8.10
2018-11-03T03:25:12.070Z,8.10
2018-11-03T03:27:39.720Z,8.00
2018-11-03T03:30:07.216Z,8.00
2018-11-03T03:32:34.711Z,8.00
2018-11-03T03:35:02.079Z,8.00
2018-11-03T03:37:29.530Z,7.90
2018-11-03T03:39:56.971Z,7.90
2018-11-03T03:42:24.560Z,7.90
2018-11-03T03:44:51.902Z,7.90
2018-11-03T03:47:19.348Z,7.90
2018-11-03T03:49:46.799Z,7.90
2018-11-03T03:52:14.157Z,7.90
2018-11-03T03:54:41.505Z,8.00
2018-11-03T03:57:08.965Z,7.90
2018-11-03T03:59:36.439Z,7.90
2018-11-03T04:02:03.796Z,7.90
2018-11-03T04:04:31.219Z,7.90
2018-11-03T04:06:58.712Z,7.90
2018-11-03T04:09:26.085Z,7.90
2018-11-03T04:11:53.500Z,7.90
2018-11-03T04:14:20.939Z,7.80
2018-11-03T04:16:48.355Z,7.90
2018-11-03T04:19:16.043Z,7.80
2018-11-03T04:21:43.477Z,7.80
2018-11-03T04:24:10.820Z,7.80
2018-11-03T04:26:38.250Z,7.80
2018-11-03T04:29:05.734Z,7.90
2018-11-03T04:31:33.181Z,7.90
2018-11-03T04:34:00.619Z,7.90
2018-11-03T04:36:28.076Z,7.80
2018-11-03T04:38:55.539Z,7.80
2018-11-03T04:41:22.951Z,7.80
2018-11-03T04:43:50.336Z,7.70
2018-11-03T04:46:17.695Z,7.70
2018-11-03T04:48:45.074Z,7.80
2018-11-03T04:51:19.001Z,7.80
2018-11-03T04:53:46.421Z,7.80
2018-11-03T04:56:13.894Z,7.80
2018-11-03T04:58:41.363Z,7.80
2018-11-03T05:01:08.772Z,7.80
2018-11-03T05:03:36.820Z,7.80
2018-11-03T05:06:04.245Z,7.80
2018-11-03T05:08:31.712Z,7.70
2018-11-03T05:10:59.163Z,7.60
2018-11-03T05:13:26.523Z,7.60
2018-11-03T05:15:53.878Z,7.70
2018-11-03T05:18:21.300Z,7.60
2018-11-03T05:20:48.659Z,7.60
2018-11-03T05:23:16.104Z,7.60
2018-11-03T05:25:43.501Z,7.60
2018-11-03T05:28:10.840Z,7.70
2018-11-03T05:30:38.307Z,7.70
2018-11-03T05:33:05.672Z,7.70
2018-11-03T05:35:33.127Z,7.60
2018-11-03T05:38:00.559Z,7.60
2018-11-03T05:40:27.935Z,7.60
2018-11-03T05:42:55.290Z,7.60
2018-11-03T05:45:22.757Z,7.60
2018-11-03T05:47:50.177Z,7.60
2018-11-03T05:50:17.550Z,7.60
2018-11-03T05:52:44.999Z,7.60
2018-11-03T05:55:12.369Z,7.70
2018-11-03T05:57:39.806Z,7.70
2018-11-03T06:00:08.507Z,7.80
2018-11-03T06:02:36.155Z,7.80
2018-11-03T06:11:35.513Z,7.90
2018-11-03T06:14:04.668Z,7.80
2018-11-03T06:16:42.777Z,7.80
2018-11-03T06:24:48.098Z,7.80
2018-11-03T06:27:27.121Z,7.90
2018-11-03T06:29:57.606Z,7.90
2018-11-03T07:19:28.858Z,8.50
2018-11-03T07:21:57.045Z,8.60
2018-11-03T07:24:36.073Z,8.70
2018-11-03T07:27:12.899Z,8.70
2018-11-03T07:29:46.527Z,8.70
2018-11-03T07:32:14.917Z,8.70
2018-11-03T07:34:43.709Z,8.80
2018-11-03T07:37:11.677Z,8.90
2018-11-03T07:39:40.592Z,8.90
2018-11-03T07:42:08.438Z,9.00
2018-11-03T07:44:36.315Z,9.00
2018-11-03T07:47:04.128Z,9.10
2018-11-03T07:49:33.565Z,9.10
2018-11-03T07:52:01.443Z,9.10
2018-11-03T07:54:29.686Z,9.20
2018-11-03T07:56:57.382Z,9.20
2018-11-03T07:59:30.377Z,9.20
2018-11-03T08:01:58.133Z,9.30
2018-11-03T08:04:25.938Z,9.30
2018-11-03T08:13:55.349Z,9.30
2018-11-03T08:23:00.003Z,9.30
2018-11-03T08:25:39.745Z,9.40
2018-11-03T08:28:13.815Z,9.50
2018-11-03T08:30:58.054Z,9.30
2018-11-03T08:57:43.851Z,9.50
2018-11-03T09:00:20.040Z,9.50
2018-11-03T09:03:01.163Z,9.50
2018-11-03T09:11:08.461Z,9.60
2018-11-03T09:13:50.255Z,9.60
2018-11-03T09:16:30.564Z,9.50
2018-11-03T09:19:14.352Z,9.50
2018-11-03T09:21:42.737Z,9.40
2018-11-03T09:24:11.468Z,9.40
2018-11-03T09:30:28.455Z,9.60
2018-11-03T09:33:00.830Z,9.80
2018-11-03T09:36:01.904Z,9.80
2018-11-03T09:38:30.697Z,9.70
2018-11-03T09:40:58.457Z,9.70
2018-11-03T09:43:26.318Z,9.90
2018-11-03T09:45:56.512Z,10.00
2018-11-03T09:48:24.462Z,10.10
2018-11-03T09:50:53.882Z,10.30
2018-11-03T09:53:21.852Z,10.50
2018-11-03T10:16:04.853Z,11.00
2018-11-03T10:20:07.665Z,11.00
2018-11-03T10:22:38.781Z,10.90
2018-11-03T10:48:52.842Z,10.80
2018-11-03T11:00:22.852Z,11.70
2018-11-03T11:17:02.848Z,12.00
2018-11-03T11:22:21.505Z,12.20
2018-11-03T11:24:58.860Z,12.20
2018-11-03T11:28:01.596Z,12.20
2018-11-03T11:30:44.915Z,12.20
2018-11-03T11:33:17.182Z,12.20
2018-11-03T11:35:54.469Z,12.20
2018-11-03T11:38:24.739Z,12.20
2018-11-03T11:40:57.042Z,12.20
2018-11-03T11:43:31.841Z,12.20
2018-11-03T11:46:15.673Z,12.10
2018-11-03T11:51:43.973Z,12.20
2018-11-03T11:54:20.971Z,12.20
2018-11-03T11:57:01.364Z,12.20
2018-11-03T12:05:41.611Z,12.60
2018-11-03T12:12:43.824Z,13.10
2018-11-03T12:18:09.128Z,12.90
2018-11-03T12:20:44.216Z,12.80
2018-11-03T12:26:32.100Z,12.50
2018-11-03T12:28:59.627Z,12.50
2018-11-03T12:31:27.130Z,12.50
2018-11-03T12:33:54.504Z,12.40
2018-11-03T12:36:21.911Z,12.40
2018-11-03T12:38:49.304Z,12.50
2018-11-03T12:41:16.854Z,12.60
2018-11-03T12:43:44.419Z,12.60
2018-11-03T12:46:11.932Z,12.80
2018-11-03T12:48:39.857Z,12.70
2018-11-03T12:51:07.462Z,12.50
2018-11-03T12:53:34.896Z,12.60
2018-11-03T12:56:02.411Z,12.60
2018-11-03T12:58:29.820Z,12.60
2018-11-03T13:00:57.341Z,12.70
2018-11-03T13:03:25.551Z,12.70
2018-11-03T13:05:53.048Z,12.60
2018-11-03T13:08:20.453Z,12.50
2018-11-03T13:10:47.965Z,12.60
2018-11-03T13:15:57.728Z,12.90
2018-11-03T13:18:25.835Z,13.10
2018-11-03T13:20:53.311Z,13.10
2018-11-03T13:23:20.779Z,13.10
2018-11-03T13:25:48.228Z,13.00
2018-11-03T13:28:15.580Z,12.80
2018-11-03T13:30:43.047Z,12.80
2018-11-03T13:33:11.092Z,12.90
2018-11-03T13:35:38.564Z,12.90
2018-11-03T13:38:06.041Z,12.80
2018-11-03T13:40:34.020Z,12.70
2018-11-03T13:43:01.669Z,12.70
2018-11-03T13:45:29.178Z,12.60
2018-11-03T13:47:57.306Z,12.60
2018-11-03T13:50:24.730Z,12.60
2018-11-03T13:52:52.194Z,12.60
2018-11-03T13:55:19.855Z,12.50
2018-11-03T13:57:47.378Z,12.50
2018-11-03T14:00:16.140Z,12.40
2018-11-03T14:02:44.434Z,12.50
2018-11-03T14:05:11.993Z,12.40
2018-11-03T14:07:39.416Z,12.50
2018-11-03T14:10:07.751Z,12.50
2018-11-03T14:12:35.375Z,12.50
2018-11-03T14:15:02.808Z,12.50
2018-11-03T14:17:30.172Z,12.50
2018-11-03T14:19:57.936Z,12.40
2018-11-03T14:22:25.378Z,12.40
2018-11-03T14:24:52.726Z,12.30
2018-11-03T14:27:20.147Z,12.20
2018-11-03T14:29:47.605Z,12.20
2018-11-03T14:32:15.045Z,12.20
2018-11-03T14:34:42.445Z,12.30
2018-11-03T14:37:09.827Z,12.30
2018-11-03T14:39:37.280Z,12.30
2018-11-03T14:42:05.258Z,12.20
2018-11-03T14:44:32.727Z,12.10
2018-11-03T14:47:00.051Z,12.10
2018-11-03T14:49:28.166Z,12.00
2018-11-03T14:51:55.583Z,11.80
2018-11-03T14:54:23.063Z,11.70
2018-11-03T14:56:50.509Z,11.60
2018-11-03T14:59:18.004Z,11.40
2018-11-03T15:01:45.440Z,11.30
2018-11-03T15:04:13.049Z,11.30
2018-11-03T15:06:40.572Z,11.20
2018-11-03T15:09:08.542Z,11.10
2018-11-03T15:11:36.207Z,11.10
2018-11-03T15:14:03.828Z,11.10
2018-11-03T15:16:31.128Z,11.00
2018-11-03T15:18:58.588Z,11.00
2018-11-03T15:21:26.132Z,11.00
2018-11-03T15:23:53.581Z,11.00
2018-11-03T15:26:21.010Z,10.90
2018-11-03T15:28:48.524Z,10.90
2018-11-03T15:31:15.955Z,10.90
2018-11-03T15:33:43.407Z,10.90
2018-11-03T15:36:10.770Z,10.80
2018-11-03T15:38:38.208Z,10.80
2018-11-03T15:41:05.965Z,10.80
2018-11-03T15:43:33.717Z,10.70
2018-11-03T15:46:01.218Z,10.70
2018-11-03T15:48:28.783Z,10.70
2018-11-03T15:50:56.223Z,10.70
2018-11-03T15:53:23.712Z,10.60
2018-11-03T15:55:51.117Z,10.60
2018-11-03T15:58:18.659Z,10.50
2018-11-03T16:00:46.039Z,10.50
2018-11-03T16:03:13.558Z,10.40
2018-11-03T16:05:40.982Z,10.40
2018-11-03T16:08:08.467Z,10.30
2018-11-03T16:10:35.875Z,10.20
2018-11-03T16:13:03.544Z,10.20
2018-11-03T16:15:30.980Z,10.10
2018-11-03T16:17:58.488Z,10.10
2018-11-03T16:20:25.967Z,10.10
2018-11-03T16:22:53.436Z,10.10
2018-11-03T16:25:20.848Z,10.10
2018-11-03T16:27:48.281Z,10.10
2018-11-03T16:30:16.824Z,10.10
2018-11-03T16:32:44.702Z,10.00
2018-11-03T16:35:11.974Z,10.00
2018-11-03T16:37:39.995Z,10.00
2018-11-03T16:40:07.863Z,9.90
2018-11-03T16:42:35.207Z,10.00
2018-11-03T16:45:02.864Z,9.90
2018-11-03T16:47:30.322Z,9.90
2018-11-03T16:49:57.813Z,9.90
2018-11-03T16:52:25.251Z,9.90
2018-11-03T16:54:52.672Z,9.90
2018-11-03T16:57:20.106Z,9.80
2018-11-03T16:59:47.540Z,9.80
2018-11-03T17:02:14.999Z,9.70
2018-11-03T17:04:42.787Z,9.70
2018-11-03T17:07:10.096Z,9.60
2018-11-03T17:09:37.535Z,9.50
2018-11-03T17:12:04.962Z,9.50
2018-11-03T17:14:32.331Z,9.40
2018-11-03T17:16:59.920Z,9.40
2018-11-03T17:19:27.408Z,9.30
2018-11-03T17:21:54.902Z,9.30
2018-11-03T17:24:22.404Z,9.20
2018-11-03T17:26:49.816Z,9.20
2018-11-03T17:29:17.300Z,9.10
2018-11-03T17:31:44.720Z,9.00
2018-11-03T17:34:12.164Z,8.90
2018-11-03T17:36:39.548Z,8.90
2018-11-03T17:39:07.891Z,8.80
2018-11-03T17:41:35.329Z,8.80
2018-11-03T17:44:02.807Z,8.70
2018-11-03T17:46:30.337Z,8.70
2018-11-03T17:48:57.764Z,8.70
2018-11-03T17:51:25.432Z,8.70
2018-11-03T17:53:53.406Z,8.60
2018-11-03T17:56:20.867Z,8.60
2018-11-03T17:58:48.351Z,8.50
2018-11-03T18:01:15.901Z,8.50
2018-11-03T18:03:43.638Z,8.50
2018-11-03T18:06:11.159Z,8.40
2018-11-03T18:08:38.552Z,8.40
2018-11-03T18:11:06.153Z,8.30
2018-11-03T18:13:33.690Z,8.30
2018-11-03T18:16:01.299Z,8.20
2018-11-03T18:18:28.811Z,8.20
2018-11-03T18:20:56.308Z,8.10
2018-11-03T18:23:23.795Z,8.10
2018-11-03T18:25:51.216Z,8.10
2018-11-03T18:28:18.644Z,8.00
2018-11-03T18:30:46.551Z,8.00
2018-11-03T18:33:14.021Z,8.00
2018-11-03T18:35:41.412Z,8.00
2018-11-03T18:38:08.872Z,7.90
2018-11-03T18:40:36.350Z,8.00
2018-11-03T18:43:06.504Z,8.00
2018-11-03T18:45:33.919Z,7.90
2018-11-03T18:48:01.329Z,8.00
2018-11-03T18:50:28.911Z,8.00
2018-11-03T18:52:56.388Z,8.00
2018-11-03T18:55:23.735Z,8.00
2018-11-03T18:57:51.200Z,8.00
2018-11-03T19:00:18.676Z,8.10
2018-11-03T19:02:46.114Z,8.00
2018-11-03T19:05:13.674Z,8.00
2018-11-03T19:07:41.123Z,8.00
2018-11-03T19:10:09.075Z,7.90
2018-11-03T19:12:36.510Z,7.90
2018-11-03T19:15:03.960Z,7.90
2018-11-03T19:17:32.195Z,8.00
2018-11-03T19:19:59.639Z,8.00
2018-11-03T19:22:27.116Z,8.00
2018-11-03T19:24:54.796Z,7.90
2018-11-03T19:27:22.243Z,7.90
2018-11-03T19:30:52.702Z,7.90
2018-11-03T19:33:20.142Z,7.80
2018-11-03T19:35:47.744Z,7.80
2018-11-03T19:38:15.117Z,7.70
2018-11-03T19:40:42.607Z,7.80
2018-11-03T19:43:10.083Z,7.70
2018-11-03T19:45:37.613Z,7.80
2018-11-03T19:48:05.574Z,7.80
2018-11-03T19:50:33.099Z,7.80
2018-11-03T19:53:00.599Z,7.80
2018-11-03T19:55:28.063Z,7.70
2018-11-03T19:57:55.519Z,7.70
2018-11-03T20:00:22.946Z,7.60
2018-11-03T20:02:50.451Z,7.60
2018-11-03T20:05:17.768Z,7.50
2018-11-03T20:07:45.318Z,7.50
2018-11-03T20:10:13.281Z,7.60
2018-11-03T20:12:40.949Z,7.60
2018-11-03T20:15:09.309Z,7.50
2018-11-03T20:17:36.948Z,7.50
2018-11-03T20:20:05.040Z,7.40
2018-11-03T20:22:33.164Z,7.40
2018-11-03T20:25:01.138Z,7.30
2018-11-03T20:27:28.607Z,7.30
2018-11-03T20:29:56.033Z,7.30
2018-11-03T20:32:23.407Z,7.20
2018-11-03T20:34:51.081Z,7.20
2018-11-03T20:37:18.716Z,7.20
2018-11-03T20:39:46.355Z,7.20
2018-11-03T20:42:13.751Z,7.10
2018-11-03T20:44:41.188Z,7.10
2018-11-03T20:47:08.689Z,7.10
2018-11-03T20:49:36.148Z,7.10
2018-11-03T20:52:03.788Z,7.10
2018-11-03T20:54:31.256Z,7.10
2018-11-03T20:56:58.731Z,7.10
2018-11-03T20:59:26.071Z,7.10
2018-11-03T21:01:53.980Z,7.20
2018-11-03T21:04:21.391Z,7.20
2018-11-03T21:06:49.128Z,7.10
2018-11-03T21:09:17.025Z,7.20
2018-11-03T21:11:45.014Z,7.10
2018-11-03T21:14:12.749Z,7.10
2018-11-03T21:16:40.433Z,7.10
2018-11-03T21:19:08.104Z,7.10
2018-11-03T21:21:35.523Z,7.10
2018-11-03T21:24:03.316Z,7.10
2018-11-03T21:26:30.551Z,7.10
2018-11-03T21:28:57.975Z,7.10
2018-11-03T21:31:25.859Z,7.10
2018-11-03T21:33:53.336Z,7.20
2018-11-03T21:36:20.790Z,7.20
2018-11-03T21:38:48.431Z,7.10
2018-11-03T21:41:15.778Z,7.10
2018-11-03T21:43:43.208Z,7.10
2018-11-03T21:46:10.669Z,7.00
2018-11-03T21:48:38.080Z,7.00
2018-11-03T21:51:05.516Z,6.90
2018-11-03T21:53:33.009Z,6.80
2018-11-03T21:56:00.505Z,6.80
2018-11-03T21:58:27.909Z,6.80
2018-11-03T22:00:55.344Z,6.80
2018-11-03T22:03:22.882Z,6.80
2018-11-03T22:05:50.256Z,6.80
2018-11-03T22:08:17.672Z,6.80
2018-11-03T22:10:45.248Z,6.80
2018-11-03T22:13:12.639Z,6.80
2018-11-03T22:15:40.115Z,6.90
2018-11-03T22:18:07.564Z,7.00
2018-11-03T22:20:35.009Z,7.00
2018-11-03T22:23:02.514Z,7.00
2018-11-03T22:25:29.999Z,7.00
2018-11-03T22:27:57.397Z,7.10
2018-11-03T22:30:24.984Z,7.10
2018-11-03T22:32:52.422Z,7.10
2018-11-03T22:35:19.866Z,7.10
2018-11-03T22:37:47.215Z,7.20
2018-11-03T22:40:14.667Z,7.20
2018-11-03T22:42:42.027Z,7.20
2018-11-03T22:45:09.487Z,7.10
2018-11-03T22:47:36.958Z,7.10
2018-11-03T22:50:04.415Z,7.20
2018-11-03T22:52:32.899Z,7.10
2018-11-03T22:55:00.289Z,7.10
2018-11-03T22:57:27.704Z,7.20
2018-11-03T22:59:55.409Z,7.20
2018-11-03T23:02:22.871Z,7.10
2018-11-03T23:04:50.290Z,7.10
2018-11-03T23:07:17.743Z,7.10
2018-11-03T23:09:45.228Z,7.10
2018-11-03T23:12:12.651Z,7.10
2018-11-03T23:14:40.374Z,7.10
2018-11-03T23:17:07.767Z,7.10
2018-11-03T23:19:35.234Z,7.10
2018-11-03T23:22:02.757Z,7.10
2018-11-03T23:24:30.159Z,7.10
2018-11-03T23:26:57.611Z,7.10
2018-11-03T23:29:25.135Z,7.10
2018-11-03T23:31:52.653Z,7.10
2018-11-03T23:34:20.110Z,7.10
2018-11-03T23:36:47.556Z,7.10
2018-11-03T23:39:15.025Z,7.10
2018-11-03T23:41:42.447Z,7.10
2018-11-03T23:44:10.176Z,7.10
2018-11-03T23:46:38.095Z,7.10
2018-11-03T23:49:05.609Z,7.00
2018-11-03T23:51:33.235Z,6.90
2018-11-03T23:54:00.693Z,7.00
2018-11-03T23:56:28.126Z,6.90
2018-11-03T23:58:55.578Z,6.90
